메인 페이지
METAR-TAF:

METAR-TAF

공항 :

댈러스 러브 필드

댈러스, 텍사스, 미국

위도: 32-51-09N, 경도: 096-51-20W, 고도: 148m

현재 날씨관측

예보는 31분 전, 13:53시(UTC)에 발표되었습니다.
동남동8kt
온도 27°C
습도 79%
기압 1022 hPa
시정: 16.1km
고도 1700ft 상공 구름 보통
고도 18000ft 상공 구름 보통
고도 23000ft 상공 구름 많음

METAR: KDAL 201353Z 12008KT 10SM SCT017 SCT180 BKN230 27/23 A3017 RMK AO2 SLP209 T02670228

시각: 09:24 (14:24 UTC)

예보

예보는 2 시간 50분 전, 11:34시(UTC)에 발표되었습니다.
예보 대상 시간: 20일 12시부터 21일 18시까지 (UTC)
8kt
시정: 10km
고도 1700ft 상공 구름 조금
고도 25000ft 상공 구름 많음
일시적
20일 12시부터 20일 15시까지 (UTC)
고도 1700ft 상공 구름 많음
20일 1600시부터 (UTC)
동남동9kt
시정: 10km
고도 4000ft 상공 구름 보통
고도 25000ft 상공 구름 많음

TAF: KDAL 201134Z 2012/2118 09008KT P6SM FEW017 BKN250 TEMPO 2012/2015 BKN017 FM201600 12009KT P6SM SCT040 BKN250

4,000개 이상의 공항 관측 자료 및 예보 (METAR 및 TAF 보고).

지도상에서 검색 가능한 기상관측소가 노란 점과 빨간 점으로 표시되어 있습니다.

기상관측소 명을 보려면 표시 위로 마우스를 이동하세요.

날씨 관측과 예보를 보려면 클릭하세요.

지도 변경 : 확대하려면 엑스 표시가 있는 녹색 버튼, 축소하려면 빼기 표시가 있는 녹색 버튼, 다음 페이지의 지도를 보려면 녹색 화살표를 클릭하세요.


METAR-TAF: